Norwegian Jewel — C6TX6 — position and weather

sailwx.info

Track history (hours):
 
Tides and Currents Weather Stations Pressure Air Temp Water Temp Dewpoint Dewpoint Depression Visibility Wind Speed Wind Dir Waves Ship Positions

Norwegian Jewel

Last reported at 2017-Aug-21 08:00 UTC. Time now 2017-Aug-22 22:28 UTC.
Position N 53°54' W 130°54'.

Type: Ship. MMSI: 311827000.

Wind from 160 at 30 knots

Barometer 1015.0 mb
Air temperature 13.0 ° C
Visibility: greater than 1.1 NM

Date/timePositionNaut miles runAvg speedWind from/ knotsBaromVisibWave heightAir tempDewpointWater temp
2017-Aug-21 08:00N 53°54' W 130°54'8614.3 160 / 301015.0 1.1 13.0
2017-Aug-21 02:00N 52°30' W 130°24'8516.6 170 / 141017.0 14.3 12.0
2017-Aug-20 20:52N 51°18' W 129°09'719.1
2017-Aug-20 20:30N 51°14' W 128°60'1019.6
2017-Aug-20 20:00N 51°11' W 128°45'1019.5
2017-Aug-20 19:30N 51°08' W 128°30'1019.5
2017-Aug-20 19:00N 51°06' W 128°15'1019.2
2017-Aug-20 18:30N 51°03' W 128°01'918.8
2017-Aug-20 18:00N 50°59' W 127°47'815.5
2017-Aug-20 17:30N 50°54' W 127°38'1020.1
2017-Aug-20 17:00N 50°48' W 127°25'1120.3
2017-Aug-20 16:27N 50°40' W 127°13'818.1
2017-Aug-20 16:00N 50°37' W 127°02'612.0
2017-Aug-20 15:30N 50°34' W 126°53'5317.3
2017-Aug-20 12:27N 50°21' W 125°32'614.0
2017-Aug-20 12:00N 50°18' W 125°25'816.2
2017-Aug-20 11:30N 50°10' W 125°22'713.5
2017-Aug-20 11:00N 50°04' W 125°15'713.5
2017-Aug-20 10:30N 49°58' W 125°11'815.0
2017-Aug-20 10:00N 49°53' W 125°02'815.9
2017-Aug-20 09:30N 49°48' W 124°54'816.1
2017-Aug-20 09:00N 49°42' W 124°44'1019.6
2017-Aug-20 08:30N 49°35' W 124°34'1019.9
2017-Aug-20 08:00N 49°28' W 124°23'15915.5
2017-Aug-20 08:00N 49°18' W 124°06'511.0 330 / 101019.027.0 18.4
2017-Aug-20 07:30N 49°23' W 124°10'1019.3
2017-Aug-20 07:00N 49°17' W 123°58'713.2
2017-Aug-20 06:30N 49°14' W 123°49'816.3
2017-Aug-20 06:00N 49°11' W 123°37'1019.2
2017-Aug-20 05:30N 49°06' W 123°25'1019.2
2017-Aug-20 05:00N 48°60' W 123°14'1019.5
2017-Aug-20 04:30N 48°53' W 123°03'1019.8
2017-Aug-20 04:00N 48°47' W 122°51'917.6
2017-Aug-20 03:30N 48°40' W 122°43'917.7
2017-Aug-20 03:00N 48°31' W 122°45'918.1
2017-Aug-20 02:30N 48°22' W 122°44'815.3
2017-Aug-20 02:00N 48°15' W 122°48'915.7
2017-Aug-20 01:28N 48°08' W 122°40'818.0
2017-Aug-20 01:00N 48°00' W 122°36'918.6
2017-Aug-20 00:30N 47°53' W 122°28'1019.5
2017-Aug-20 00:00N 47°43' W 122°27'714.0
2017-Aug-19 23:30N 47°37' W 122°23'1 2.2
2017-Aug-19 22:59N 47°37' W 122°21'0 0.0
2017-Aug-19 22:28N 47°37' W 122°21'0 0.0
2017-Aug-19 21:58N 47°37' W 122°21'0 0.0
2017-Aug-19 21:28N 47°37' W 122°21'0 0.0
2017-Aug-19 20:58N 47°37' W 122°21'0 0.0
2017-Aug-19 20:28N 47°37' W 122°21'0 0.0
2017-Aug-19 20:00N 47°37' W 122°21'2142.4
2017-Aug-19 20:00N 47°36' W 122°18'2 4.4 280 / 41022.027.0 17.1
2017-Aug-19 19:30N 47°37' W 122°21'0 0.0
2017-Aug-19 19:00N 47°37' W 122°21'0 0.0
2017-Aug-19 18:30N 47°37' W 122°21'0 0.0
2017-Aug-19 17:59N 47°37' W 122°21'0 0.0
2017-Aug-19 17:29N 47°37' W 122°21'0 0.0
2017-Aug-19 16:59N 47°37' W 122°21'0 0.0
2017-Aug-19 16:29N 47°37' W 122°21'0 0.0
2017-Aug-19 15:59N 47°37' W 122°21'0 0.0
2017-Aug-19 15:28N 47°37' W 122°21'0 0.0
2017-Aug-19 14:58N 47°37' W 122°21'0 0.0
2017-Aug-19 13:55N 47°37' W 122°21'0 0.9
2017-Aug-19 13:30N 47°36' W 122°21'4 7.4
2017-Aug-19 13:00N 47°38' W 122°26'4 7.9
2017-Aug-19 12:30N 47°42' W 122°28'5 9.8
2017-Aug-19 12:00N 47°46' W 122°27'510.1
2017-Aug-19 11:30N 47°51' W 122°29'5 9.5
2017-Aug-19 11:00N 47°56' W 122°32'5 9.8
2017-Aug-19 10:30N 47°59' W 122°37'5 9.9
2017-Aug-19 10:00N 48°04' W 122°39'5 9.2
2017-Aug-19 09:30N 48°08' W 122°43'611.2
2017-Aug-19 09:00N 48°11' W 122°50'611.3
2017-Aug-19 08:30N 48°11' W 122°58'511.2
2017-Aug-19 08:00N 48°12' W 123°07'024.7
2017-Aug-19 08:00N 48°12' W 123°06'612.7 260 / 161021.027.0 13.0
2017-Aug-19 07:30N 48°11' W 123°15'611.3
2017-Aug-19 07:00N 48°10' W 123°24'4 7.5
2017-Aug-19 06:30N 48°12' W 123°28'3 6.9
2017-Aug-19 06:00N 48°15' W 123°29'4 8.6
2017-Aug-19 05:30N 48°19' W 123°27'4 7.3
2017-Aug-19 05:00N 48°23' W 123°25'2 4.7
2017-Aug-19 04:29N 48°25' W 123°23'0 0.0
2017-Aug-19 03:59N 48°25' W 123°23'0 0.0
2017-Aug-19 03:28N 48°25' W 123°23'0 0.0
2017-Aug-19 02:55N 48°25' W 123°23'0 0.0
2017-Aug-19 02:28N 48°25' W 123°23'0 0.0
2017-Aug-19 01:55N 48°25' W 123°23'0 0.0
2017-Aug-19 01:28N 48°25' W 123°23'0 0.0
2017-Aug-19 01:00N 48°25' W 123°23'0 0.0
2017-Aug-19 00:30N 48°25' W 123°23'0 0.0
2017-Aug-19 00:00N 48°25' W 123°23'0 0.0
2017-Aug-18 23:30N 48°25' W 123°23'0 0.0
2017-Aug-18 23:00N 48°25' W 123°23'0 0.0
2017-Aug-18 22:23N 48°25' W 123°23'0 0.0
2017-Aug-18 21:59N 48°25' W 123°23'0 0.0
2017-Aug-18 21:29N 48°25' W 123°23'0 0.0
2017-Aug-18 20:59N 48°25' W 123°23'2 4.2
2017-Aug-18 20:31N 48°24' W 123°26'612.3
2017-Aug-18 20:01N 48°17' W 123°25'815.4
2017-Aug-18 19:31N 48°13' W 123°35'917.7
2017-Aug-18 19:00N 48°14' W 123°49'917.5
2017-Aug-18 18:30N 48°16' W 124°02'1018.9
2017-Aug-18 18:00N 48°20' W 124°15'1020.6
2017-Aug-18 17:31N 48°24' W 124°28'1019.7
2017-Aug-18 17:01N 48°28' W 124°42'6336.7
2017-Aug-18 17:00N 48°24' W 124°36'1429.5 270 / 151017.0 14.0 12.0
2017-Aug-18 16:31N 48°28' W 124°57'1020.0
2017-Aug-18 16:00N 48°29' W 125°12'1019.7
2017-Aug-18 15:31N 48°34' W 125°25'1019.3
2017-Aug-18 15:01N 48°39' W 125°37'2221.6
2017-Aug-18 14:01N 48°51' W 126°05'1122.2
2017-Aug-18 13:30N 48°57' W 126°18'1122.8
2017-Aug-18 13:01N 49°04' W 126°32'1222.8
2017-Aug-18 12:30N 49°12' W 126°46'1122.8
2017-Aug-18 12:00N 49°19' W 126°59'46021.9
2017-Aug-17 15:00N 55°30' W 134°24'2412.0 210 / 251008.0 12.1 10.0
2017-Aug-17 13:00N 55°54' W 134°24'7915.7 170 / 241009.0 10.9 12.0
2017-Aug-17 08:00N 57°12' W 134°42'5427.2
2017-Aug-17 06:00N 58°06' W 134°54'14 0.6 220 / 191009.0 13.1 12.0
2017-Aug-16 09:00N 58°18' W 134°42'126 4.9 040 / 131004.0 5.4 11.0
2017-Aug-15 07:00N 56°12' W 134°24'2323.4
2017-Aug-15 06:00N 56°00' W 133°48'122 5.6 210 / 111011.0 11.9 12.0
2017-Aug-14 08:00N 54°36' W 131°12'20819.3 150 / 201015.010.8 12.0
2017-Aug-13 21:14N 51°17' W 129°29'418.8
2017-Aug-13 21:00N 51°17' W 129°22'918.7
2017-Aug-13 20:30N 51°15' W 129°07'918.4
2017-Aug-13 20:00N 51°13' W 128°53'918.0
2017-Aug-13 19:30N 51°12' W 128°39'918.1
2017-Aug-13 19:00N 51°09' W 128°25'5327.3
2017-Aug-13 19:00N 51°06' W 128°18'4 8.4 260 / 161015.027.0 13.0 11.0
2017-Aug-13 18:30N 51°05' W 128°12'918.9
2017-Aug-13 18:00N 51°02' W 127°58'917.1
2017-Aug-13 17:30N 50°58' W 127°45'816.1
2017-Aug-13 17:00N 50°53' W 127°36'1120.8
2017-Aug-13 16:30N 50°47' W 127°22'1529.2
2017-Aug-13 16:00N 50°36' W 127°06'4201.2 300 / 111013.0 13.9 14.0
2017-Aug-13 15:58N 50°38' W 127°11'915.2
2017-Aug-13 15:23N 50°35' W 126°58'4 8.6
2017-Aug-13 14:52N 50°34' W 126°52'717.4
2017-Aug-13 14:29N 50°31' W 126°41'3618.1
2017-Aug-13 12:30N 50°23' W 125°47'1315.1
2017-Aug-13 11:38N 50°20' W 125°27'212.9
2017-Aug-13 11:30N 50°19' W 125°25'917.7
2017-Aug-13 11:00N 50°11' W 125°22'611.6
2017-Aug-13 10:30N 50°06' W 125°17'612.8
2017-Aug-13 10:00N 50°00' W 125°12'816.4
2017-Aug-13 09:31N 49°54' W 125°04'917.1
2017-Aug-13 09:00N 49°48' W 124°54'917.2
2017-Aug-13 08:31N 49°42' W 124°45'918.0
2017-Aug-13 08:01N 49°35' W 124°35'1019.2
2017-Aug-13 07:31N 49°28' W 124°26'1019.7
2017-Aug-13 07:01N 49°23' W 124°13'1122.2
2017-Aug-13 06:31N 49°19' W 123°57'816.7
2017-Aug-13 06:00N 49°13' W 123°47'917.6
2017-Aug-13 05:30N 49°10' W 123°35'1122.6
2017-Aug-13 05:00N 49°04' W 123°21'1122.2
2017-Aug-13 04:31N 48°56' W 123°08'1020.7
2017-Aug-13 04:01N 48°47' W 123°00'1121.2
2017-Aug-13 03:31N 48°42' W 123°14'1020.0
2017-Aug-13 03:01N 48°32' W 123°11'1223.0
2017-Aug-13 02:30N 48°23' W 123°01'1121.7
2017-Aug-13 02:00N 48°14' W 122°52'1019.2
2017-Aug-13 01:30N 48°08' W 122°40'919.0
2017-Aug-13 01:00N 47°59' W 122°35'917.6
2017-Aug-13 00:30N 47°52' W 122°28'1019.6
2017-Aug-13 00:00N 47°42' W 122°27'612.5
2017-Aug-12 23:31N 47°37' W 122°22'0 0.8
2017-Aug-12 23:00N 47°37' W 122°21'0 0.0
2017-Aug-12 22:30N 47°37' W 122°21'0 0.0
2017-Aug-12 22:00N 47°37' W 122°21'0 0.0
2017-Aug-12 21:29N 47°37' W 122°21'0 0.0
2017-Aug-12 21:00N 47°37' W 122°21'0 0.0
2017-Aug-12 20:29N 47°37' W 122°21'0 0.0
2017-Aug-12 19:59N 47°37' W 122°21'0 0.0
2017-Aug-12 19:25N 47°37' W 122°21'0 0.0
2017-Aug-12 18:58N 47°37' W 122°21'0 0.0
2017-Aug-12 18:28N 47°37' W 122°21'2 4.6
2017-Aug-12 18:00N 47°36' W 122°18'289.0 190 / 101014.027.0 17.0
2017-Aug-12 17:58N 47°37' W 122°21'0 0.0
2017-Aug-12 17:29N 47°37' W 122°21'0 0.0
2017-Aug-12 17:00N 47°37' W 122°21'0 0.0
2017-Aug-12 16:30N 47°37' W 122°21'0 0.0
2017-Aug-12 16:00N 47°37' W 122°21'0 0.0
2017-Aug-12 15:30N 47°37' W 122°21'0 0.0
2017-Aug-12 15:00N 47°37' W 122°21'0 0.0
2017-Aug-12 14:30N 47°37' W 122°21'1 1.0
2017-Aug-12 14:00N 47°36' W 122°21'2204.9
2017-Aug-12 14:00N 47°36' W 122°18'2 4.5 210 / 9
2017-Aug-12 13:30N 47°37' W 122°21'1 1.9
2017-Aug-12 13:00N 47°36' W 122°22'4 8.8
2017-Aug-12 12:30N 47°39' W 122°28'4 8.3
2017-Aug-12 12:00N 47°43' W 122°28'5 9.1
2017-Aug-12 11:30N 47°48' W 122°27'5 9.0
2017-Aug-12 11:00N 47°52' W 122°29'5 9.6
2017-Aug-12 10:30N 47°56' W 122°32'5 9.6
2017-Aug-12 09:56N 48°01' W 122°38'4 9.2
2017-Aug-12 09:27N 48°05' W 122°40'4 8.1
2017-Aug-12 08:59N 48°08' W 122°43'4 8.6
2017-Aug-12 08:30N 48°10' W 122°48'5 9.2
2017-Aug-12 08:00N 48°11' W 122°54'5 9.9
2017-Aug-12 07:30N 48°12' W 123°02'510.1
2017-Aug-12 07:00N 48°12' W 123°09'5 9.8
2017-Aug-12 06:30N 48°11' W 123°17'5 9.8
2017-Aug-12 06:00N 48°10' W 123°24'612.2
2017-Aug-12 05:30N 48°14' W 123°30'815.5
2017-Aug-12 05:00N 48°21' W 123°25'4 7.7
2017-Aug-12 04:30N 48°25' W 123°24'0 0.5
2017-Aug-12 03:59N 48°25' W 123°23'0 0.0
2017-Aug-12 03:29N 48°25' W 123°23'0 0.0
2017-Aug-12 02:55N 48°25' W 123°23'0 0.0
2017-Aug-12 02:25N 48°25' W 123°23'0 0.0
2017-Aug-12 01:58N 48°25' W 123°23'0 0.0
2017-Aug-12 01:28N 48°25' W 123°23'0 0.0
2017-Aug-12 00:55N 48°25' W 123°23'0 0.0
2017-Aug-12 00:30N 48°25' W 123°23'0 0.0
2017-Aug-12 00:00N 48°25' W 123°23'0 0.0
2017-Aug-11 23:30N 48°25' W 123°23'0 0.0
2017-Aug-11 23:00N 48°25' W 123°23'0 0.0
2017-Aug-11 22:30N 48°25' W 123°23'0 0.0
2017-Aug-11 21:59N 48°25' W 123°23'0 0.0
2017-Aug-11 21:29N 48°25' W 123°23'0 0.0
2017-Aug-11 20:59N 48°25' W 123°23'0 0.0
2017-Aug-11 20:29N 48°25' W 123°23'0 0.0
2017-Aug-11 19:58N 48°25' W 123°23'0 0.3
2017-Aug-11 19:30N 48°25' W 123°24'5 9.1
2017-Aug-11 19:01N 48°20' W 123°24'815.2
2017-Aug-11 18:29N 48°13' W 123°30'1020.2
2017-Aug-11 18:01N 48°13' W 123°45'1120.9
2017-Aug-11 17:30N 48°15' W 124°01'1021.1
2017-Aug-11 17:00N 48°20' W 124°15'1121.2
2017-Aug-11 16:31N 48°24' W 124°29'1020.8
2017-Aug-11 16:01N 48°27' W 124°44'1121.3
2017-Aug-11 15:30N 48°28' W 125°00'1121.4
2017-Aug-11 15:00N 48°32' W 125°15'1121.2
2017-Aug-11 14:30N 48°37' W 125°29'2221.6
2017-Aug-11 13:30N 48°48' W 125°58'1121.9
2017-Aug-11 13:01N 48°54' W 126°11'1122.8
2017-Aug-11 12:30N 49°02' W 126°24'1122.8
2017-Aug-11 12:01N 49°09' W 126°38'1223.2
2017-Aug-11 11:31N 49°16' W 126°51'1322.9
2017-Aug-11 10:57N 49°24' W 127°07'1022.9
2017-Aug-11 10:31N 49°30' W 127°19'1122.9
2017-Aug-11 10:00N 49°38' W 127°32'1422.9
2017-Aug-11 09:25N 49°46' W 127°49'1123.2
2017-Aug-11 08:56N 49°53' W 128°02'1023.2
2017-Aug-11 08:30N 49°60' W 128°14'1122.8
2017-Aug-11 08:01N 50°08' W 128°26'  
Track history (hours):
 
Tides and Currents Weather Stations Pressure Air Temp Water Temp Dewpoint Dewpoint Depression Visibility Wind Speed Wind Dir Waves Ship Positions

Norwegian Jewel

Last reported at 2017-Aug-21 08:00 UTC. Time now 2017-Aug-22 22:28 UTC.
Position N 53°54' W 130°54'.

Type: Ship. MMSI: 311827000.

Wind from 160 at 30 knots

Barometer 1015.0 mb
Air temperature 13.0 ° C
Visibility: greater than 1.1 NM

Date/timePositionNaut miles runAvg speedWind from/ knotsBaromVisibWave heightAir tempDewpointWater temp
2017-Aug-21 08:00N 53°54' W 130°54'8614.3 160 / 301015.0 1.1 13.0
2017-Aug-21 02:00N 52°30' W 130°24'8516.6 170 / 141017.0 14.3 12.0
2017-Aug-20 20:52N 51°18' W 129°09'719.1
2017-Aug-20 20:30N 51°14' W 128°60'1019.6
2017-Aug-20 20:00N 51°11' W 128°45'1019.5
2017-Aug-20 19:30N 51°08' W 128°30'1019.5
2017-Aug-20 19:00N 51°06' W 128°15'1019.2
2017-Aug-20 18:30N 51°03' W 128°01'918.8
2017-Aug-20 18:00N 50°59' W 127°47'815.5
2017-Aug-20 17:30N 50°54' W 127°38'1020.1
2017-Aug-20 17:00N 50°48' W 127°25'1120.3
2017-Aug-20 16:27N 50°40' W 127°13'818.1
2017-Aug-20 16:00N 50°37' W 127°02'612.0
2017-Aug-20 15:30N 50°34' W 126°53'5317.3
2017-Aug-20 12:27N 50°21' W 125°32'614.0
2017-Aug-20 12:00N 50°18' W 125°25'816.2
2017-Aug-20 11:30N 50°10' W 125°22'713.5
2017-Aug-20 11:00N 50°04' W 125°15'713.5
2017-Aug-20 10:30N 49°58' W 125°11'815.0
2017-Aug-20 10:00N 49°53' W 125°02'815.9
2017-Aug-20 09:30N 49°48' W 124°54'816.1
2017-Aug-20 09:00N 49°42' W 124°44'1019.6
2017-Aug-20 08:30N 49°35' W 124°34'1019.9
2017-Aug-20 08:00N 49°28' W 124°23'15915.5
2017-Aug-20 08:00N 49°18' W 124°06'511.0 330 / 101019.027.0 18.4
2017-Aug-20 07:30N 49°23' W 124°10'1019.3
2017-Aug-20 07:00N 49°17' W 123°58'713.2
2017-Aug-20 06:30N 49°14' W 123°49'816.3
2017-Aug-20 06:00N 49°11' W 123°37'1019.2
2017-Aug-20 05:30N 49°06' W 123°25'1019.2
2017-Aug-20 05:00N 48°60' W 123°14'1019.5
2017-Aug-20 04:30N 48°53' W 123°03'1019.8
2017-Aug-20 04:00N 48°47' W 122°51'917.6
2017-Aug-20 03:30N 48°40' W 122°43'917.7
2017-Aug-20 03:00N 48°31' W 122°45'918.1
2017-Aug-20 02:30N 48°22' W 122°44'815.3
2017-Aug-20 02:00N 48°15' W 122°48'915.7
2017-Aug-20 01:28N 48°08' W 122°40'818.0
2017-Aug-20 01:00N 48°00' W 122°36'918.6
2017-Aug-20 00:30N 47°53' W 122°28'1019.5
2017-Aug-20 00:00N 47°43' W 122°27'714.0
2017-Aug-19 23:30N 47°37' W 122°23'1 2.2
2017-Aug-19 22:59N 47°37' W 122°21'0 0.0
2017-Aug-19 22:28N 47°37' W 122°21'0 0.0
2017-Aug-19 21:58N 47°37' W 122°21'0 0.0
2017-Aug-19 21:28N 47°37' W 122°21'0 0.0
2017-Aug-19 20:58N 47°37' W 122°21'0 0.0
2017-Aug-19 20:28N 47°37' W 122°21'0 0.0
2017-Aug-19 20:00N 47°37' W 122°21'2142.4
2017-Aug-19 20:00N 47°36' W 122°18'2 4.4 280 / 41022.027.0 17.1
2017-Aug-19 19:30N 47°37' W 122°21'0 0.0
2017-Aug-19 19:00N 47°37' W 122°21'0 0.0
2017-Aug-19 18:30N 47°37' W 122°21'0 0.0
2017-Aug-19 17:59N 47°37' W 122°21'0 0.0
2017-Aug-19 17:29N 47°37' W 122°21'0 0.0
2017-Aug-19 16:59N 47°37' W 122°21'0 0.0
2017-Aug-19 16:29N 47°37' W 122°21'0 0.0
2017-Aug-19 15:59N 47°37' W 122°21'0 0.0
2017-Aug-19 15:28N 47°37' W 122°21'0 0.0
2017-Aug-19 14:58N 47°37' W 122°21'0 0.0
2017-Aug-19 13:55N 47°37' W 122°21'0 0.9
2017-Aug-19 13:30N 47°36' W 122°21'4 7.4
2017-Aug-19 13:00N 47°38' W 122°26'4 7.9
2017-Aug-19 12:30N 47°42' W 122°28'5 9.8
2017-Aug-19 12:00N 47°46' W 122°27'510.1
2017-Aug-19 11:30N 47°51' W 122°29'5 9.5
2017-Aug-19 11:00N 47°56' W 122°32'5 9.8
2017-Aug-19 10:30N 47°59' W 122°37'5 9.9
2017-Aug-19 10:00N 48°04' W 122°39'5 9.2
2017-Aug-19 09:30N 48°08' W 122°43'611.2
2017-Aug-19 09:00N 48°11' W 122°50'611.3
2017-Aug-19 08:30N 48°11' W 122°58'511.2
2017-Aug-19 08:00N 48°12' W 123°07'024.7
2017-Aug-19 08:00N 48°12' W 123°06'612.7 260 / 161021.027.0 13.0
2017-Aug-19 07:30N 48°11' W 123°15'611.3
2017-Aug-19 07:00N 48°10' W 123°24'4 7.5
2017-Aug-19 06:30N 48°12' W 123°28'3 6.9
2017-Aug-19 06:00N 48°15' W 123°29'4 8.6
2017-Aug-19 05:30N 48°19' W 123°27'4 7.3
2017-Aug-19 05:00N 48°23' W 123°25'2 4.7
2017-Aug-19 04:29N 48°25' W 123°23'0 0.0
2017-Aug-19 03:59N 48°25' W 123°23'0 0.0
2017-Aug-19 03:28N 48°25' W 123°23'0 0.0
2017-Aug-19 02:55N 48°25' W 123°23'0 0.0
2017-Aug-19 02:28N 48°25' W 123°23'0 0.0
2017-Aug-19 01:55N 48°25' W 123°23'0 0.0
2017-Aug-19 01:28N 48°25' W 123°23'0 0.0
2017-Aug-19 01:00N 48°25' W 123°23'0 0.0
2017-Aug-19 00:30N 48°25' W 123°23'0 0.0
2017-Aug-19 00:00N 48°25' W 123°23'0 0.0
2017-Aug-18 23:30N 48°25' W 123°23'0 0.0
2017-Aug-18 23:00N 48°25' W 123°23'0 0.0
2017-Aug-18 22:23N 48°25' W 123°23'0 0.0
2017-Aug-18 21:59N 48°25' W 123°23'0 0.0
2017-Aug-18 21:29N 48°25' W 123°23'0 0.0
2017-Aug-18 20:59N 48°25' W 123°23'2 4.2
2017-Aug-18 20:31N 48°24' W 123°26'612.3
2017-Aug-18 20:01N 48°17' W 123°25'815.4
2017-Aug-18 19:31N 48°13' W 123°35'917.7
2017-Aug-18 19:00N 48°14' W 123°49'917.5
2017-Aug-18 18:30N 48°16' W 124°02'1018.9
2017-Aug-18 18:00N 48°20' W 124°15'1020.6
2017-Aug-18 17:31N 48°24' W 124°28'1019.7
2017-Aug-18 17:01N 48°28' W 124°42'6336.7
2017-Aug-18 17:00N 48°24' W 124°36'1429.5 270 / 151017.0 14.0 12.0
2017-Aug-18 16:31N 48°28' W 124°57'1020.0
2017-Aug-18 16:00N 48°29' W 125°12'1019.7
2017-Aug-18 15:31N 48°34' W 125°25'1019.3
2017-Aug-18 15:01N 48°39' W 125°37'2221.6
2017-Aug-18 14:01N 48°51' W 126°05'1122.2
2017-Aug-18 13:30N 48°57' W 126°18'1122.8
2017-Aug-18 13:01N 49°04' W 126°32'1222.8
2017-Aug-18 12:30N 49°12' W 126°46'1122.8
2017-Aug-18 12:00N 49°19' W 126°59'46021.9
2017-Aug-17 15:00N 55°30' W 134°24'2412.0 210 / 251008.0 12.1 10.0
2017-Aug-17 13:00N 55°54' W 134°24'7915.7 170 / 241009.0 10.9 12.0
2017-Aug-17 08:00N 57°12' W 134°42'5427.2
2017-Aug-17 06:00N 58°06' W 134°54'14 0.6 220 / 191009.0 13.1 12.0
2017-Aug-16 09:00N 58°18' W 134°42'126 4.9 040 / 131004.0 5.4 11.0
2017-Aug-15 07:00N 56°12' W 134°24'2323.4
2017-Aug-15 06:00N 56°00' W 133°48'122 5.6 210 / 111011.0 11.9 12.0
2017-Aug-14 08:00N 54°36' W 131°12'20819.3 150 / 201015.010.8 12.0
2017-Aug-13 21:14N 51°17' W 129°29'418.8
2017-Aug-13 21:00N 51°17' W 129°22'918.7
2017-Aug-13 20:30N 51°15' W 129°07'918.4
2017-Aug-13 20:00N 51°13' W 128°53'918.0
2017-Aug-13 19:30N 51°12' W 128°39'918.1
2017-Aug-13 19:00N 51°09' W 128°25'5327.3
2017-Aug-13 19:00N 51°06' W 128°18'4 8.4 260 / 161015.027.0 13.0 11.0
2017-Aug-13 18:30N 51°05' W 128°12'918.9
2017-Aug-13 18:00N 51°02' W 127°58'917.1
2017-Aug-13 17:30N 50°58' W 127°45'816.1
2017-Aug-13 17:00N 50°53' W 127°36'1120.8
2017-Aug-13 16:30N 50°47' W 127°22'1529.2
2017-Aug-13 16:00N 50°36' W 127°06'4201.2 300 / 111013.0 13.9 14.0
2017-Aug-13 15:58N 50°38' W 127°11'915.2
2017-Aug-13 15:23N 50°35' W 126°58'4 8.6
2017-Aug-13 14:52N 50°34' W 126°52'717.4
2017-Aug-13 14:29N 50°31' W 126°41'3618.1
2017-Aug-13 12:30N 50°23' W 125°47'1315.1
2017-Aug-13 11:38N 50°20' W 125°27'212.9
2017-Aug-13 11:30N 50°19' W 125°25'917.7
2017-Aug-13 11:00N 50°11' W 125°22'611.6
2017-Aug-13 10:30N 50°06' W 125°17'612.8
2017-Aug-13 10:00N 50°00' W 125°12'816.4
2017-Aug-13 09:31N 49°54' W 125°04'917.1
2017-Aug-13 09:00N 49°48' W 124°54'917.2
2017-Aug-13 08:31N 49°42' W 124°45'918.0
2017-Aug-13 08:01N 49°35' W 124°35'1019.2
2017-Aug-13 07:31N 49°28' W 124°26'1019.7
2017-Aug-13 07:01N 49°23' W 124°13'1122.2
2017-Aug-13 06:31N 49°19' W 123°57'816.7
2017-Aug-13 06:00N 49°13' W 123°47'917.6
2017-Aug-13 05:30N 49°10' W 123°35'1122.6
2017-Aug-13 05:00N 49°04' W 123°21'1122.2
2017-Aug-13 04:31N 48°56' W 123°08'1020.7
2017-Aug-13 04:01N 48°47' W 123°00'1121.2
2017-Aug-13 03:31N 48°42' W 123°14'1020.0
2017-Aug-13 03:01N 48°32' W 123°11'1223.0
2017-Aug-13 02:30N 48°23' W 123°01'1121.7
2017-Aug-13 02:00N 48°14' W 122°52'1019.2
2017-Aug-13 01:30N 48°08' W 122°40'919.0
2017-Aug-13 01:00N 47°59' W 122°35'917.6
2017-Aug-13 00:30N 47°52' W 122°28'1019.6
2017-Aug-13 00:00N 47°42' W 122°27'612.5
2017-Aug-12 23:31N 47°37' W 122°22'0 0.8
2017-Aug-12 23:00N 47°37' W 122°21'0 0.0
2017-Aug-12 22:30N 47°37' W 122°21'0 0.0
2017-Aug-12 22:00N 47°37' W 122°21'0 0.0
2017-Aug-12 21:29N 47°37' W 122°21'0 0.0
2017-Aug-12 21:00N 47°37' W 122°21'0 0.0
2017-Aug-12 20:29N 47°37' W 122°21'0 0.0
2017-Aug-12 19:59N 47°37' W 122°21'0 0.0
2017-Aug-12 19:25N 47°37' W 122°21'0 0.0
2017-Aug-12 18:58N 47°37' W 122°21'0 0.0
2017-Aug-12 18:28N 47°37' W 122°21'2 4.6
2017-Aug-12 18:00N 47°36' W 122°18'289.0 190 / 101014.027.0 17.0
2017-Aug-12 17:58N 47°37' W 122°21'0 0.0
2017-Aug-12 17:29N 47°37' W 122°21'0 0.0
2017-Aug-12 17:00N 47°37' W 122°21'0 0.0
2017-Aug-12 16:30N 47°37' W 122°21'0 0.0
2017-Aug-12 16:00N 47°37' W 122°21'0 0.0
2017-Aug-12 15:30N 47°37' W 122°21'0 0.0
2017-Aug-12 15:00N 47°37' W 122°21'0 0.0
2017-Aug-12 14:30N 47°37' W 122°21'1 1.0
2017-Aug-12 14:00N 47°36' W 122°21'2204.9
2017-Aug-12 14:00N 47°36' W 122°18'2 4.5 210 / 9
2017-Aug-12 13:30N 47°37' W 122°21'1 1.9
2017-Aug-12 13:00N 47°36' W 122°22'4 8.8
2017-Aug-12 12:30N 47°39' W 122°28'4 8.3
2017-Aug-12 12:00N 47°43' W 122°28'5 9.1
2017-Aug-12 11:30N 47°48' W 122°27'5 9.0
2017-Aug-12 11:00N 47°52' W 122°29'5 9.6
2017-Aug-12 10:30N 47°56' W 122°32'5 9.6
2017-Aug-12 09:56N 48°01' W 122°38'4 9.2
2017-Aug-12 09:27N 48°05' W 122°40'4 8.1
2017-Aug-12 08:59N 48°08' W 122°43'4 8.6
2017-Aug-12 08:30N 48°10' W 122°48'5 9.2
2017-Aug-12 08:00N 48°11' W 122°54'5 9.9
2017-Aug-12 07:30N 48°12' W 123°02'510.1
2017-Aug-12 07:00N 48°12' W 123°09'5 9.8
2017-Aug-12 06:30N 48°11' W 123°17'5 9.8
2017-Aug-12 06:00N 48°10' W 123°24'612.2
2017-Aug-12 05:30N 48°14' W 123°30'815.5
2017-Aug-12 05:00N 48°21' W 123°25'4 7.7
2017-Aug-12 04:30N 48°25' W 123°24'0 0.5
2017-Aug-12 03:59N 48°25' W 123°23'0 0.0
2017-Aug-12 03:29N 48°25' W 123°23'0 0.0
2017-Aug-12 02:55N 48°25' W 123°23'0 0.0
2017-Aug-12 02:25N 48°25' W 123°23'0 0.0
2017-Aug-12 01:58N 48°25' W 123°23'0 0.0
2017-Aug-12 01:28N 48°25' W 123°23'0 0.0
2017-Aug-12 00:55N 48°25' W 123°23'0 0.0
2017-Aug-12 00:30N 48°25' W 123°23'0 0.0
2017-Aug-12 00:00N 48°25' W 123°23'0 0.0
2017-Aug-11 23:30N 48°25' W 123°23'0 0.0
2017-Aug-11 23:00N 48°25' W 123°23'0 0.0
2017-Aug-11 22:30N 48°25' W 123°23'0 0.0
2017-Aug-11 21:59N 48°25' W 123°23'0 0.0
2017-Aug-11 21:29N 48°25' W 123°23'0 0.0
2017-Aug-11 20:59N 48°25' W 123°23'0 0.0
2017-Aug-11 20:29N 48°25' W 123°23'0 0.0
2017-Aug-11 19:58N 48°25' W 123°23'0 0.3
2017-Aug-11 19:30N 48°25' W 123°24'5 9.1
2017-Aug-11 19:01N 48°20' W 123°24'815.2
2017-Aug-11 18:29N 48°13' W 123°30'1020.2
2017-Aug-11 18:01N 48°13' W 123°45'1120.9
2017-Aug-11 17:30N 48°15' W 124°01'1021.1
2017-Aug-11 17:00N 48°20' W 124°15'1121.2
2017-Aug-11 16:31N 48°24' W 124°29'1020.8
2017-Aug-11 16:01N 48°27' W 124°44'1121.3
2017-Aug-11 15:30N 48°28' W 125°00'1121.4
2017-Aug-11 15:00N 48°32' W 125°15'1121.2
2017-Aug-11 14:30N 48°37' W 125°29'2221.6
2017-Aug-11 13:30N 48°48' W 125°58'1121.9
2017-Aug-11 13:01N 48°54' W 126°11'1122.8
2017-Aug-11 12:30N 49°02' W 126°24'1122.8
2017-Aug-11 12:01N 49°09' W 126°38'1223.2
2017-Aug-11 11:31N 49°16' W 126°51'1322.9
2017-Aug-11 10:57N 49°24' W 127°07'1022.9
2017-Aug-11 10:31N 49°30' W 127°19'1122.9
2017-Aug-11 10:00N 49°38' W 127°32'1422.9
2017-Aug-11 09:25N 49°46' W 127°49'1123.2
2017-Aug-11 08:56N 49°53' W 128°02'1023.2
2017-Aug-11 08:30N 49°60' W 128°14'1122.8
2017-Aug-11 08:01N 50°08' W 128°26'  

Dump ship's entire track history